createdAt,value
2023-05-01T00:01:12.094Z,5.40
2023-05-01T00:06:16.240Z,4.72
2023-05-01T00:11:21.718Z,5.68
2023-05-01T00:16:25.746Z,6.78
2023-05-01T00:21:29.734Z,8.07
2023-05-01T00:26:35.307Z,6.43
2023-05-01T00:31:41.853Z,6.13
2023-05-01T00:36:49.216Z,8.00
2023-05-01T00:41:56.691Z,6.32
2023-05-01T00:47:02.394Z,7.68
2023-05-01T00:52:06.663Z,11.07
2023-05-01T00:57:12.454Z,5.50
2023-05-01T01:02:16.986Z,4.75
2023-05-01T01:07:33.789Z,5.95
2023-05-01T01:12:47.833Z,4.43
2023-05-01T01:17:58.759Z,5.85
2023-05-01T01:23:44.249Z,5.90
2023-05-01T01:29:12.205Z,4.57
2023-05-01T01:34:23.712Z,5.45
2023-05-01T01:39:31.922Z,4.55
2023-05-01T01:44:42.835Z,3.90
2023-05-01T01:49:52.555Z,4.88
2023-05-01T01:55:02.378Z,7.70
2023-05-01T02:00:11.504Z,4.68
2023-05-01T02:05:25.083Z,4.10
2023-05-01T02:10:30.806Z,6.15
2023-05-01T02:15:36.092Z,4.90
2023-05-01T02:20:45.457Z,4.50
2023-05-01T02:25:53.196Z,4.10
2023-05-01T02:30:57.491Z,4.25
2023-05-01T02:36:03.507Z,4.63
2023-05-01T02:41:09.215Z,4.65
2023-05-01T02:46:14.797Z,4.70
2023-05-01T02:51:22.518Z,4.45
2023-05-01T02:56:28.124Z,4.20
2023-05-01T03:01:32.375Z,4.57
2023-05-01T03:06:39.204Z,5.60
2023-05-01T03:17:11.483Z,4.18
2023-05-01T03:22:17.881Z,4.53
2023-05-01T03:27:22.151Z,4.43
2023-05-01T03:32:29.202Z,4.55
2023-05-01T03:37:35.476Z,5.07
2023-05-01T03:42:39.917Z,7.03
2023-05-01T03:47:51.587Z,5.10
2023-05-01T03:52:57.664Z,4.65
2023-05-01T03:58:02.685Z,4.75
2023-05-01T04:03:06.854Z,6.05
2023-05-01T04:08:14.782Z,7.40
2023-05-01T04:13:19.371Z,7.28
2023-05-01T04:18:24.223Z,8.20
2023-05-01T04:23:29.640Z,6.35
2023-05-01T04:28:36.127Z,7.95
2023-05-01T04:33:43.165Z,7.15
2023-05-01T04:38:48.701Z,14.48
2023-05-01T04:43:54.030Z,9.65
2023-05-01T04:48:58.694Z,11.38
2023-05-01T04:54:06.847Z,8.05
2023-05-01T04:59:16.251Z,10.63
2023-05-01T05:04:20.336Z,7.95
2023-05-01T05:09:25.994Z,6.10
2023-05-01T05:14:29.976Z,6.03
2023-05-01T05:19:34.956Z,6.10
2023-05-01T05:24:40.400Z,7.57
2023-05-01T05:29:44.780Z,6.57
2023-05-01T05:34:49.060Z,7.57
2023-05-01T05:39:55.861Z,5.65
2023-05-01T05:45:00.904Z,6.95
2023-05-01T05:50:07.478Z,7.03
2023-05-01T05:55:15.122Z,6.35
2023-05-01T06:00:28.510Z,7.82
2023-05-01T06:05:34.406Z,10.18
2023-05-01T06:10:43.103Z,9.90
2023-05-01T06:15:47.598Z,6.78
2023-05-01T06:20:52.355Z,5.97
2023-05-01T06:25:57.932Z,5.15
2023-05-01T06:31:04.397Z,4.10
2023-05-01T06:36:12.105Z,4.97
2023-05-01T06:41:19.193Z,3.78
2023-05-01T06:46:23.259Z,3.28
2023-05-01T06:51:27.777Z,4.03
2023-05-01T06:56:33.537Z,4.15
2023-05-01T07:01:38.903Z,3.78
2023-05-01T07:06:43.105Z,4.65
2023-05-01T07:11:48.745Z,5.60
2023-05-01T07:16:52.831Z,4.10
2023-05-01T07:21:57.879Z,5.97
2023-05-01T07:27:03.695Z,5.25
2023-05-01T07:32:08.588Z,4.65
2023-05-01T07:37:13.265Z,3.45
2023-05-01T07:42:18.903Z,3.03
2023-05-01T07:47:24.411Z,3.22
2023-05-01T07:52:28.936Z,3.25
2023-05-01T07:57:36.645Z,3.40
2023-05-01T08:02:41.166Z,3.15
2023-05-01T08:07:46.678Z,3.72
2023-05-01T08:12:52.129Z,3.67
2023-05-01T08:17:56.684Z,3.85
2023-05-01T08:23:01.965Z,3.67
2023-05-01T08:28:08.528Z,3.88
2023-05-01T08:33:12.939Z,3.33
2023-05-01T08:38:17.022Z,2.30
2023-05-01T08:43:25.077Z,2.00
2023-05-01T08:48:31.002Z,2.08
2023-05-01T08:53:36.406Z,2.53
2023-05-01T08:58:42.995Z,2.92
2023-05-01T09:03:51.822Z,3.95
2023-05-01T09:08:56.094Z,1.92
2023-05-01T09:14:05.723Z,2.17
2023-05-01T09:19:09.950Z,2.17
2023-05-01T09:24:14.051Z,1.95
2023-05-01T09:29:40.761Z,2.00
2023-05-01T09:34:49.093Z,2.78
2023-05-01T09:40:04.112Z,2.35
2023-05-01T09:45:15.299Z,2.25
2023-05-01T09:50:31.393Z,2.33
2023-05-01T09:55:36.992Z,1.60
2023-05-01T10:00:50.517Z,2.00
2023-05-01T10:05:56.993Z,1.90
2023-05-01T10:11:05.419Z,2.72
2023-05-01T10:16:33.239Z,2.17
2023-05-01T10:21:38.418Z,2.55
2023-05-01T10:26:44.246Z,7.40
2023-05-01T10:31:50.733Z,3.28
2023-05-01T10:37:00.417Z,2.50
2023-05-01T10:42:11.206Z,2.40
2023-05-01T10:47:48.981Z,2.20
2023-05-01T10:53:21.210Z,2.20
2023-05-01T10:58:57.484Z,3.67
2023-05-01T11:04:04.815Z,1.77
2023-05-01T11:09:37.855Z,1.58
2023-05-01T11:15:05.938Z,2.80
2023-05-01T11:20:14.428Z,2.45
2023-05-01T11:25:24.302Z,2.30
2023-05-01T11:30:38.397Z,2.05
2023-05-01T11:35:45.380Z,1.95
2023-05-01T11:40:56.905Z,2.30
2023-05-01T11:46:05.239Z,2.30
2023-05-01T11:51:17.079Z,2.50
2023-05-01T11:56:27.192Z,3.00
2023-05-01T12:01:38.450Z,2.92
2023-05-01T12:06:48.260Z,3.85
2023-05-01T12:11:55.482Z,5.07
2023-05-01T12:17:05.945Z,4.65
2023-05-01T12:22:19.410Z,3.70
2023-05-01T12:27:23.862Z,2.92
2023-05-01T12:32:34.022Z,2.35
2023-05-01T12:37:40.137Z,1.90
2023-05-01T12:42:45.285Z,2.70
2023-05-01T12:47:50.636Z,2.30
2023-05-01T12:52:56.496Z,2.28
2023-05-01T12:58:00.772Z,2.70
2023-05-01T13:03:06.289Z,2.33
2023-05-01T13:08:18.221Z,2.03
2023-05-01T13:18:30.370Z,1.60
2023-05-01T13:23:38.202Z,1.42
2023-05-01T13:28:46.798Z,2.10
2023-05-01T13:33:53.593Z,2.80
2023-05-01T13:38:59.629Z,2.60
2023-05-01T13:44:03.673Z,4.85
2023-05-01T13:49:08.958Z,1.58
2023-05-01T13:54:15.731Z,1.33
2023-05-01T13:59:20.282Z,1.67
2023-05-01T14:04:24.761Z,1.65
2023-05-01T14:09:30.201Z,1.40
2023-05-01T14:14:37.646Z,1.23
2023-05-01T14:19:42.304Z,1.42
2023-05-01T14:24:47.940Z,1.40
2023-05-01T14:29:52.327Z,1.88
2023-05-01T14:34:57.277Z,2.00
2023-05-01T14:40:04.897Z,1.10
2023-05-01T14:45:12.516Z,1.30
2023-05-01T14:50:21.151Z,1.40
2023-05-01T14:55:29.495Z,1.40
2023-05-01T15:00:35.333Z,1.40
2023-05-01T15:05:41.833Z,1.23
2023-05-01T15:10:47.463Z,1.40
2023-05-01T15:15:53.153Z,1.38
2023-05-01T15:20:57.547Z,1.80
2023-05-01T15:26:04.059Z,1.13
2023-05-01T15:31:08.582Z,2.00
2023-05-01T15:36:13.509Z,1.65
2023-05-01T15:41:19.487Z,1.35
2023-05-01T15:46:25.405Z,1.30
2023-05-01T15:51:29.662Z,2.38
2023-05-01T15:56:38.191Z,1.50
2023-05-01T16:01:42.659Z,2.13
2023-05-01T16:06:47.157Z,1.73
2023-05-01T16:11:52.919Z,1.70
2023-05-01T16:16:58.308Z,2.33
2023-05-01T16:22:04.874Z,4.75
2023-05-01T16:27:13.722Z,4.35
2023-05-01T16:32:20.878Z,3.88
2023-05-01T16:37:27.037Z,5.85
2023-05-01T16:42:33.574Z,5.38
2023-05-01T16:47:39.831Z,8.48
2023-05-01T16:52:47.126Z,8.35
2023-05-01T16:57:52.971Z,8.68
2023-05-01T17:02:59.313Z,9.07
2023-05-01T17:08:05.512Z,6.72
2023-05-01T17:13:16.976Z,3.72
2023-05-01T17:18:21.422Z,2.70
2023-05-01T17:23:28.107Z,2.40
2023-05-01T17:28:35.212Z,3.80
2023-05-01T17:33:39.467Z,3.55
2023-05-01T17:38:46.208Z,6.38
2023-05-01T17:43:53.008Z,9.73
2023-05-01T17:48:58.578Z,5.07
2023-05-01T17:54:02.806Z,4.95
2023-05-01T17:59:08.405Z,6.03
2023-05-01T18:04:12.827Z,5.45
2023-05-01T18:09:19.785Z,5.03
2023-05-01T18:14:26.696Z,6.63
2023-05-01T18:19:30.884Z,7.05
2023-05-01T18:24:35.175Z,6.10
2023-05-01T18:29:41.455Z,7.93
2023-05-01T18:34:46.116Z,6.32
2023-05-01T18:39:50.697Z,6.82
2023-05-01T18:44:56.998Z,6.00
2023-05-01T18:50:01.967Z,5.85
2023-05-01T18:55:10.223Z,7.78
2023-05-01T19:00:18.059Z,8.80
2023-05-01T19:05:24.558Z,5.13
2023-05-01T19:10:30.193Z,4.88
2023-05-01T19:15:36.991Z,4.95
2023-05-01T19:20:42.768Z,4.65
2023-05-01T19:25:49.793Z,4.22
2023-05-01T19:30:56.205Z,3.92
2023-05-01T19:36:03.856Z,3.10
2023-05-01T19:41:09.323Z,2.30
2023-05-01T19:46:17.741Z,4.35
2023-05-01T19:51:21.912Z,4.17
2023-05-01T19:56:26.082Z,3.63
2023-05-01T20:01:32.261Z,3.55
2023-05-01T20:06:36.567Z,4.00
2023-05-01T20:11:42.150Z,4.70
2023-05-01T20:16:49.167Z,4.15
2023-05-01T20:21:55.203Z,4.00
2023-05-01T20:27:02.963Z,4.13
2023-05-01T20:32:09.084Z,3.92
2023-05-01T20:37:13.232Z,3.65
2023-05-01T20:42:17.355Z,3.00
2023-05-01T20:47:22.952Z,4.10
2023-05-01T20:52:28.186Z,3.63
2023-05-01T20:57:33.321Z,3.53
2023-05-01T21:02:40.842Z,4.03
2023-05-01T21:07:45.286Z,3.80
2023-05-01T21:12:50.219Z,4.07
2023-05-01T21:17:56.819Z,4.28
2023-05-01T21:23:01.872Z,3.45
2023-05-01T21:28:07.256Z,3.72
2023-05-01T21:33:17.141Z,3.97
2023-05-01T21:38:21.463Z,3.70
2023-05-01T21:43:25.694Z,3.75
2023-05-01T21:48:36.973Z,4.05
2023-05-01T21:53:43.025Z,4.22
2023-05-01T21:58:47.661Z,3.38
2023-05-01T22:03:53.655Z,3.65
2023-05-01T22:08:58.223Z,4.95
2023-05-01T22:14:02.920Z,4.32
2023-05-01T22:24:41.779Z,4.00
2023-05-01T22:29:46.059Z,3.67
2023-05-01T22:34:51.807Z,4.40
2023-05-01T22:45:23.663Z,3.97
2023-05-01T22:50:29.573Z,5.05
2023-05-01T22:55:34.671Z,4.30
2023-05-01T23:00:38.868Z,3.63
2023-05-01T23:05:44.854Z,3.80
2023-05-01T23:10:49.307Z,3.38
2023-05-01T23:15:53.702Z,4.13
2023-05-01T23:20:59.567Z,3.78
2023-05-01T23:26:03.606Z,3.53
2023-05-01T23:31:08.521Z,4.00
2023-05-01T23:36:14.207Z,3.97
2023-05-01T23:41:18.615Z,4.75
2023-05-01T23:46:23.001Z,3.67
2023-05-01T23:51:29.024Z,3.95
2023-05-01T23:56:33.201Z,3.60
